createdAt,value
2018-11-23T00:00:15.083Z,-1.50
2018-11-23T00:02:43.962Z,-1.40
2018-11-23T00:05:12.014Z,-1.40
2018-11-23T00:07:40.318Z,-1.50
2018-11-23T00:10:11.240Z,-1.60
2018-11-23T00:12:38.164Z,-1.60
2018-11-23T00:15:08.896Z,-1.70
2018-11-23T00:17:36.793Z,-1.90
2018-11-23T00:20:06.819Z,-1.90
2018-11-23T00:22:34.528Z,-1.90
2018-11-23T00:25:02.320Z,-1.90
2018-11-23T00:27:30.043Z,-1.80
2018-11-23T00:29:57.755Z,-1.80
2018-11-23T00:32:25.482Z,-1.90
2018-11-23T00:34:53.154Z,-2.10
2018-11-23T00:37:20.830Z,-2.10
2018-11-23T00:39:48.580Z,-2.20
2018-11-23T00:42:17.417Z,-2.30
2018-11-23T00:44:45.242Z,-2.20
2018-11-23T00:47:12.922Z,-2.10
2018-11-23T00:49:40.622Z,-2.20
2018-11-23T00:52:08.317Z,-2.20
2018-11-23T00:54:36.057Z,-2.10
2018-11-23T00:57:03.753Z,-2.00
2018-11-23T00:59:31.497Z,-2.00
2018-11-23T01:02:04.711Z,-1.90
2018-11-23T01:04:33.710Z,-2.00
2018-11-23T01:07:01.710Z,-2.00
2018-11-23T01:09:29.401Z,-1.80
2018-11-23T01:11:57.117Z,-1.90
2018-11-23T01:14:24.954Z,-1.80
2018-11-23T01:16:52.709Z,-1.90
2018-11-23T01:19:20.434Z,-2.00
2018-11-23T01:21:48.149Z,-2.00
2018-11-23T01:24:15.870Z,-2.00
2018-11-23T01:26:43.637Z,-2.20
2018-11-23T01:29:11.338Z,-2.10
2018-11-23T01:31:38.958Z,-2.00
2018-11-23T01:34:06.706Z,-2.10
2018-11-23T01:36:34.454Z,-2.20
2018-11-23T01:39:02.698Z,-2.00
2018-11-23T01:41:30.602Z,-2.00
2018-11-23T01:43:58.310Z,-2.00
2018-11-23T01:46:26.162Z,-2.20
2018-11-23T01:48:53.972Z,-2.10
2018-11-23T01:51:21.650Z,-2.20
2018-11-23T01:53:49.374Z,-2.30
2018-11-23T01:56:17.090Z,-2.30
2018-11-23T01:58:44.705Z,-2.30
2018-11-23T02:01:12.404Z,-2.30
2018-11-23T02:03:40.221Z,-2.30
2018-11-23T02:06:07.973Z,-2.30
2018-11-23T02:08:35.714Z,-2.30
2018-11-23T02:11:06.471Z,-2.40
2018-11-23T02:13:34.244Z,-2.40
2018-11-23T02:16:01.911Z,-2.40
2018-11-23T02:18:29.574Z,-2.30
2018-11-23T02:20:57.411Z,-2.30
2018-11-23T02:23:25.175Z,-2.30
2018-11-23T02:25:53.341Z,-2.40
2018-11-23T02:28:21.086Z,-2.40
2018-11-23T02:30:50.382Z,-2.40
2018-11-23T02:33:18.215Z,-2.40
2018-11-23T02:35:45.958Z,-2.40
2018-11-23T02:38:13.702Z,-2.40
2018-11-23T02:40:41.419Z,-2.40
2018-11-23T02:43:09.051Z,-2.50
2018-11-23T02:45:36.754Z,-2.50
2018-11-23T02:48:04.852Z,-2.60
2018-11-23T02:50:32.562Z,-2.50
2018-11-23T02:53:00.263Z,-2.40
2018-11-23T02:55:28.094Z,-2.40
2018-11-23T02:57:55.786Z,-2.40
2018-11-23T03:00:23.511Z,-2.50
2018-11-23T03:02:51.198Z,-2.50
2018-11-23T03:05:21.228Z,-2.50
2018-11-23T03:07:48.981Z,-2.50
2018-11-23T03:10:17.098Z,-2.50
2018-11-23T03:12:45.546Z,-2.40
2018-11-23T03:15:15.678Z,-2.60
2018-11-23T03:17:44.016Z,-2.60
2018-11-23T03:20:20.660Z,-2.50
2018-11-23T03:22:48.397Z,-2.50
2018-11-23T03:25:16.229Z,-2.50
2018-11-23T03:27:43.958Z,-2.50
2018-11-23T03:30:19.901Z,-2.50
2018-11-23T03:32:48.329Z,-2.60
2018-11-23T03:35:16.472Z,-2.60
2018-11-23T03:37:44.979Z,-2.60
2018-11-23T03:40:12.210Z,-2.60
2018-11-23T03:42:40.003Z,-2.60
2018-11-23T03:45:10.127Z,-2.70
2018-11-23T03:47:38.083Z,-2.60
2018-11-23T03:50:07.261Z,-2.50
2018-11-23T03:52:34.972Z,-2.50
2018-11-23T03:55:02.702Z,-2.60
2018-11-23T03:57:30.414Z,-2.50
2018-11-23T03:59:58.128Z,-2.50
2018-11-23T04:02:26.410Z,-2.60
2018-11-23T04:04:54.103Z,-2.60
2018-11-23T04:07:22.081Z,-2.60
2018-11-23T04:09:50.712Z,-2.60
2018-11-23T04:12:18.483Z,-2.60
2018-11-23T04:14:46.210Z,-2.70
2018-11-23T04:17:13.953Z,-2.60
2018-11-23T04:19:41.696Z,-2.70
2018-11-23T04:22:09.399Z,-2.80
2018-11-23T04:24:37.134Z,-2.70
2018-11-23T04:27:04.932Z,-2.70
2018-11-23T04:29:32.673Z,-2.70
2018-11-23T04:32:00.450Z,-2.70
2018-11-23T04:34:28.079Z,-2.90
2018-11-23T04:36:56.242Z,-2.80
2018-11-23T04:39:23.939Z,-2.80
2018-11-23T04:41:51.658Z,-2.80
2018-11-23T04:44:19.395Z,-2.60
2018-11-23T04:46:47.100Z,-2.70
2018-11-23T04:49:14.787Z,-2.70
2018-11-23T04:51:42.478Z,-2.90
2018-11-23T04:54:10.213Z,-2.90
2018-11-23T04:56:37.878Z,-3.00
2018-11-23T04:59:05.866Z,-2.70
2018-11-23T05:01:33.586Z,-2.70
2018-11-23T05:04:01.458Z,-2.80
2018-11-23T05:06:29.255Z,-3.00
2018-11-23T05:08:56.962Z,-3.00
2018-11-23T05:11:24.735Z,-2.90
2018-11-23T05:13:52.405Z,-3.00
2018-11-23T05:16:20.171Z,-3.10
2018-11-23T05:18:47.928Z,-3.20
2018-11-23T05:21:15.719Z,-3.00
2018-11-23T05:23:43.434Z,-2.90
2018-11-23T05:26:11.110Z,-3.00
2018-11-23T05:28:38.779Z,-3.00
2018-11-23T05:31:06.496Z,-3.00
2018-11-23T05:33:34.158Z,-3.10
2018-11-23T05:36:01.927Z,-3.20
2018-11-23T05:38:29.610Z,-3.10
2018-11-23T05:40:57.334Z,-3.00
2018-11-23T05:43:25.037Z,-3.00
2018-11-23T05:45:56.472Z,-3.00
2018-11-23T05:48:26.898Z,-3.10
2018-11-23T05:50:52.042Z,-3.00
2018-11-23T05:53:19.806Z,-3.00
2018-11-23T05:55:47.639Z,-3.00
2018-11-23T05:58:15.346Z,-3.00
2018-11-23T06:00:43.190Z,-3.00
2018-11-23T06:03:10.890Z,-3.00
2018-11-23T06:05:38.574Z,-2.90
2018-11-23T06:08:06.266Z,-2.80
2018-11-23T06:10:33.962Z,-2.80
2018-11-23T06:13:01.684Z,-3.00
2018-11-23T06:15:29.421Z,-2.90
2018-11-23T06:17:57.277Z,-3.00
2018-11-23T06:20:25.554Z,-2.90
2018-11-23T06:22:53.938Z,-2.90
2018-11-23T06:25:26.429Z,-2.90
2018-11-23T06:27:54.232Z,-3.00
2018-11-23T06:30:22.037Z,-3.10
2018-11-23T06:33:07.246Z,-3.10
2018-11-23T06:35:35.065Z,-3.10
2018-11-23T06:38:02.785Z,-3.00
2018-11-23T06:40:30.553Z,-2.90
2018-11-23T06:42:58.309Z,-2.90
2018-11-23T06:45:26.065Z,-2.90
2018-11-23T06:47:53.818Z,-2.80
2018-11-23T06:50:21.495Z,-2.90
2018-11-23T06:52:49.208Z,-3.00
2018-11-23T06:55:17.330Z,-2.90
2018-11-23T06:57:45.103Z,-2.90
2018-11-23T07:00:14.342Z,-2.80
2018-11-23T07:02:42.906Z,-2.80
2018-11-23T07:05:10.965Z,-2.90
2018-11-23T07:07:38.809Z,-2.90
2018-11-23T07:10:08.260Z,-2.80
2018-11-23T07:12:36.353Z,-3.00
2018-11-23T07:15:05.690Z,-3.00
2018-11-23T07:17:33.426Z,-2.80
2018-11-23T07:20:01.122Z,-2.80
2018-11-23T07:22:28.829Z,-2.90
2018-11-23T07:24:56.562Z,-2.80
2018-11-23T07:27:24.294Z,-2.90
2018-11-23T07:29:51.991Z,-2.90
2018-11-23T07:32:19.798Z,-2.90
2018-11-23T07:34:47.585Z,-2.90
2018-11-23T07:37:15.323Z,-2.80
2018-11-23T07:40:00.571Z,-2.60
2018-11-23T07:42:29.702Z,-2.50
2018-11-23T07:44:57.451Z,-2.40
2018-11-23T07:47:25.157Z,-2.20
2018-11-23T07:49:52.876Z,-2.30
2018-11-23T07:52:20.554Z,-2.00
2018-11-23T07:54:48.254Z,-2.00
2018-11-23T07:57:16.025Z,-1.90
2018-11-23T07:59:43.730Z,-1.80
2018-11-23T08:02:12.223Z,-1.80
2018-11-23T08:04:40.604Z,-1.80
2018-11-23T08:07:09.378Z,-1.60
2018-11-23T08:09:37.675Z,-1.60
2018-11-23T08:12:05.962Z,-1.50
2018-11-23T08:14:33.780Z,-1.40
2018-11-23T08:17:01.581Z,-1.30
2018-11-23T08:19:29.287Z,-1.20
2018-11-23T08:21:57.095Z,-1.10
2018-11-23T08:24:24.833Z,-1.00
2018-11-23T08:26:52.813Z,-0.90
2018-11-23T08:29:20.758Z,-0.80
2018-11-23T08:31:48.419Z,-0.70
2018-11-23T08:34:16.171Z,-0.70
2018-11-23T08:36:43.943Z,-0.50
2018-11-23T08:39:11.767Z,-0.30
2018-11-23T08:41:39.715Z,-0.10
2018-11-23T08:44:07.809Z,0.10
2018-11-23T08:46:35.558Z,0.40
2018-11-23T08:49:03.313Z,0.60
2018-11-23T08:51:31.205Z,0.60
2018-11-23T08:53:58.970Z,1.00
2018-11-23T08:56:26.646Z,1.20
2018-11-23T08:58:56.609Z,1.10
2018-11-23T09:01:24.526Z,1.00
2018-11-23T09:03:53.077Z,1.10
2018-11-23T09:06:20.746Z,1.30
2018-11-23T09:08:48.461Z,1.50
2018-11-23T09:11:16.217Z,1.60
2018-11-23T09:13:44.144Z,1.40
2018-11-23T09:16:11.834Z,1.30
2018-11-23T09:18:39.627Z,1.50
2018-11-23T09:21:07.490Z,1.70
2018-11-23T09:23:35.158Z,2.00
2018-11-23T09:26:03.068Z,2.20
2018-11-23T09:28:30.764Z,2.30
2018-11-23T09:30:58.386Z,2.20
2018-11-23T09:33:26.131Z,2.60
2018-11-23T09:35:53.861Z,2.80
2018-11-23T09:38:21.619Z,2.70
2018-11-23T09:40:49.370Z,2.80
2018-11-23T09:43:17.083Z,2.80
2018-11-23T09:45:44.797Z,2.80
2018-11-23T09:48:12.510Z,2.80
2018-11-23T09:50:40.268Z,2.80
2018-11-23T09:53:08.087Z,2.90
2018-11-23T09:55:36.576Z,2.80
2018-11-23T09:58:04.301Z,2.90
2018-11-23T10:00:34.836Z,3.30
2018-11-23T10:03:02.467Z,3.30
2018-11-23T10:05:30.882Z,3.30
2018-11-23T10:07:59.963Z,3.20
2018-11-23T10:10:28.366Z,3.10
2018-11-23T10:12:56.081Z,3.40
2018-11-23T10:15:24.689Z,3.40
2018-11-23T10:17:52.414Z,3.60
2018-11-23T10:20:21.553Z,3.90
2018-11-23T10:22:49.278Z,4.00
2018-11-23T10:25:19.469Z,4.40
2018-11-23T10:27:47.434Z,4.10
2018-11-23T10:30:20.403Z,4.10
2018-11-23T10:32:49.235Z,4.30
2018-11-23T10:35:16.943Z,4.50
2018-11-23T10:37:45.858Z,4.50
2018-11-23T10:40:15.603Z,4.70
2018-11-23T10:42:43.450Z,4.90
2018-11-23T10:45:14.618Z,5.10
2018-11-23T10:47:42.573Z,5.30
2018-11-23T10:50:14.010Z,4.90
2018-11-23T10:52:41.741Z,5.00
2018-11-23T10:55:13.341Z,5.00
2018-11-23T10:57:42.776Z,5.20
2018-11-23T11:00:19.533Z,5.30
2018-11-23T11:02:53.163Z,5.10
2018-11-23T11:05:26.704Z,5.40
2018-11-23T11:07:55.547Z,5.40
2018-11-23T11:10:23.204Z,5.30
2018-11-23T11:12:51.291Z,5.20
2018-11-23T11:15:19.054Z,5.20
2018-11-23T11:17:46.771Z,5.30
2018-11-23T11:20:14.638Z,5.30
2018-11-23T11:22:42.406Z,5.20
2018-11-23T11:25:10.542Z,5.20
2018-11-23T11:27:38.953Z,5.20
2018-11-23T11:30:10.516Z,5.30
2018-11-23T11:32:38.339Z,5.40
2018-11-23T11:35:06.858Z,5.60
2018-11-23T11:37:34.575Z,5.80
2018-11-23T11:40:02.306Z,5.60
2018-11-23T11:42:30.090Z,5.40
2018-11-23T11:44:57.785Z,5.30
2018-11-23T11:47:25.514Z,5.10
2018-11-23T11:49:59.061Z,5.20
2018-11-23T11:52:20.984Z,5.10
2018-11-23T11:54:48.713Z,5.30
2018-11-23T11:57:16.602Z,5.20
2018-11-23T11:59:44.285Z,5.00
2018-11-23T12:02:12.168Z,5.00
2018-11-23T12:04:39.882Z,5.10
2018-11-23T12:07:07.625Z,5.00
2018-11-23T12:09:35.278Z,5.10
2018-11-23T12:12:03.147Z,4.90
2018-11-23T12:14:31.197Z,4.90
2018-11-23T12:16:58.972Z,4.90
2018-11-23T12:19:26.704Z,4.90
2018-11-23T12:21:54.386Z,4.80
2018-11-23T12:24:22.110Z,4.90
2018-11-23T12:26:49.831Z,5.00
2018-11-23T12:29:17.549Z,5.00
2018-11-23T12:31:45.273Z,5.00
2018-11-23T12:34:13.048Z,5.00
2018-11-23T12:36:41.214Z,5.00
2018-11-23T12:39:08.985Z,5.10
2018-11-23T12:41:36.650Z,5.00
2018-11-23T12:44:04.449Z,5.00
2018-11-23T12:46:32.102Z,5.00
2018-11-23T12:48:59.806Z,5.10
2018-11-23T12:51:27.498Z,5.00
2018-11-23T12:53:55.150Z,5.00
2018-11-23T12:56:22.795Z,5.10
2018-11-23T12:58:50.506Z,5.00
2018-11-23T13:01:18.269Z,5.00
2018-11-23T13:03:45.998Z,5.00
2018-11-23T13:06:13.686Z,5.10
2018-11-23T13:08:42.251Z,5.10
2018-11-23T13:11:10.093Z,5.20
2018-11-23T13:13:37.806Z,5.20
2018-11-23T13:16:05.517Z,5.20
2018-11-23T13:18:35.074Z,5.30
2018-11-23T13:21:04.530Z,5.30
2018-11-23T13:23:32.237Z,5.30
2018-11-23T13:25:59.982Z,5.30
2018-11-23T13:28:28.047Z,5.30
2018-11-23T13:30:56.022Z,5.40
2018-11-23T13:33:23.681Z,5.40
2018-11-23T13:35:51.555Z,5.40
2018-11-23T13:38:19.230Z,5.40
2018-11-23T13:40:46.968Z,5.40
2018-11-23T13:43:14.678Z,5.50
2018-11-23T13:45:42.385Z,5.40
2018-11-23T13:48:10.022Z,5.50
2018-11-23T13:50:37.733Z,5.50
2018-11-23T13:53:05.435Z,5.50
2018-11-23T13:55:33.155Z,5.40
2018-11-23T13:58:01.310Z,5.40
2018-11-23T14:00:32.167Z,5.40
2018-11-23T14:02:59.934Z,5.30
2018-11-23T14:05:29.360Z,5.30
2018-11-23T14:07:58.212Z,5.20
2018-11-23T14:10:26.705Z,5.20
2018-11-23T14:12:54.460Z,5.20
2018-11-23T14:15:23.470Z,5.20
2018-11-23T14:17:52.174Z,5.10
2018-11-23T14:20:20.854Z,5.10
2018-11-23T14:22:48.645Z,5.00
2018-11-23T14:25:20.714Z,5.00
2018-11-23T14:27:48.997Z,4.90
2018-11-23T14:30:20.226Z,4.90
2018-11-23T14:32:48.261Z,4.80
2018-11-23T14:35:19.187Z,4.80
2018-11-23T14:37:47.811Z,4.70
2018-11-23T14:40:15.691Z,4.70
2018-11-23T14:42:44.288Z,4.60
2018-11-23T14:45:19.765Z,4.60
2018-11-23T14:47:48.138Z,4.50
2018-11-23T14:50:19.520Z,4.40
2018-11-23T14:52:48.356Z,4.30
2018-11-23T14:55:16.415Z,4.20
2018-11-23T14:57:44.618Z,4.10
2018-11-23T15:00:16.414Z,4.10
2018-11-23T15:02:45.284Z,4.00
2018-11-23T15:05:13.601Z,3.90
2018-11-23T15:07:41.515Z,3.80
2018-11-23T15:10:12.711Z,3.60
2018-11-23T15:12:40.431Z,3.50
2018-11-23T15:15:13.146Z,3.40
2018-11-23T15:17:41.510Z,3.40
2018-11-23T15:20:13.170Z,3.30
2018-11-23T15:22:41.259Z,3.20
2018-11-23T15:25:09.211Z,3.10
2018-11-23T15:27:37.198Z,3.00
2018-11-23T15:30:16.939Z,2.90
2018-11-23T15:32:44.853Z,2.80
2018-11-23T15:35:12.971Z,2.70
2018-11-23T15:37:40.674Z,2.70
2018-11-23T15:40:13.475Z,2.60
2018-11-23T15:42:41.226Z,2.50
2018-11-23T15:45:14.535Z,2.40
2018-11-23T15:47:42.350Z,2.40
2018-11-23T15:50:14.187Z,2.30
2018-11-23T15:52:42.237Z,2.30
2018-11-23T15:55:14.130Z,2.20
2018-11-23T15:57:42.790Z,2.10
2018-11-23T16:00:14.178Z,2.20
2018-11-23T16:02:42.535Z,2.30
2018-11-23T16:05:11.038Z,2.40
2018-11-23T16:07:38.785Z,2.50
2018-11-23T16:10:14.006Z,2.50
2018-11-23T16:12:41.963Z,2.50
2018-11-23T16:15:10.046Z,2.50
2018-11-23T16:17:38.174Z,2.50
2018-11-23T16:20:10.602Z,2.50
2018-11-23T16:22:38.351Z,2.60
2018-11-23T16:25:08.086Z,2.60
2018-11-23T16:27:36.023Z,2.60
2018-11-23T16:30:09.051Z,2.60
2018-11-23T16:32:36.746Z,2.70
2018-11-23T16:35:05.042Z,2.60
2018-11-23T16:37:32.817Z,2.70
2018-11-23T16:40:00.554Z,2.70
2018-11-23T16:42:28.309Z,2.70
2018-11-23T16:44:56.011Z,2.70
2018-11-23T16:47:23.726Z,2.70
2018-11-23T16:49:51.483Z,2.70
2018-11-23T16:52:19.270Z,2.80
2018-11-23T16:54:47.007Z,2.80
2018-11-23T16:57:14.798Z,2.80
2018-11-23T16:59:42.473Z,2.70
2018-11-23T17:02:10.270Z,2.80
2018-11-23T17:04:38.187Z,2.80
2018-11-23T17:07:12.707Z,2.80
2018-11-23T17:09:33.550Z,2.90
2018-11-23T17:12:01.260Z,2.80
2018-11-23T17:14:29.034Z,2.80
2018-11-23T17:16:56.780Z,2.80
2018-11-23T17:19:24.696Z,2.80
2018-11-23T17:21:52.391Z,2.90
2018-11-23T17:24:20.098Z,2.90
2018-11-23T17:26:47.869Z,2.90
2018-11-23T17:29:15.833Z,2.80
2018-11-23T17:31:44.478Z,2.90
2018-11-23T17:34:12.191Z,2.80
2018-11-23T17:36:39.874Z,2.80
2018-11-23T17:39:08.529Z,2.90
2018-11-23T17:41:36.399Z,2.90
2018-11-23T17:44:04.234Z,3.00
2018-11-23T17:46:31.998Z,2.90
2018-11-23T17:48:59.686Z,2.90
2018-11-23T17:51:27.383Z,3.00
2018-11-23T17:53:55.118Z,2.90
2018-11-23T17:56:26.570Z,2.90
2018-11-23T17:58:54.526Z,2.90
2018-11-23T18:01:22.274Z,2.90
2018-11-23T18:03:50.014Z,2.90
2018-11-23T18:06:17.738Z,2.90
2018-11-23T18:08:45.413Z,2.90
2018-11-23T18:11:13.147Z,2.80
2018-11-23T18:13:40.894Z,2.90
2018-11-23T18:16:08.602Z,2.90
2018-11-23T18:18:37.116Z,3.00
2018-11-23T18:21:05.819Z,3.00
2018-11-23T18:23:33.526Z,3.00
2018-11-23T18:26:01.259Z,3.00
2018-11-23T18:28:29.004Z,3.00
2018-11-23T18:30:56.766Z,2.90
2018-11-23T18:33:24.470Z,2.90
2018-11-23T18:35:52.271Z,2.90
2018-11-23T18:38:20.091Z,2.80
2018-11-23T18:40:47.794Z,2.80
2018-11-23T18:43:15.794Z,2.90
2018-11-23T18:45:43.523Z,2.80
2018-11-23T18:48:11.182Z,2.80
2018-11-23T18:50:39.627Z,2.90
2018-11-23T18:53:07.384Z,2.90
2018-11-23T18:55:35.052Z,2.90
2018-11-23T18:58:02.854Z,2.90
2018-11-23T19:00:30.613Z,2.80
2018-11-23T19:02:58.374Z,2.80
2018-11-23T19:05:27.266Z,2.90
2018-11-23T19:07:55.081Z,2.90
2018-11-23T19:10:22.895Z,2.90
2018-11-23T19:12:51.073Z,2.90
2018-11-23T19:15:25.072Z,2.80
2018-11-23T19:17:46.742Z,2.90
2018-11-23T19:20:18.981Z,2.90
2018-11-23T19:22:49.330Z,2.90
2018-11-23T19:25:17.130Z,2.90
2018-11-23T19:27:44.858Z,2.90
2018-11-23T19:30:14.600Z,2.90
2018-11-23T19:32:42.352Z,2.90
2018-11-23T19:35:10.028Z,2.90
2018-11-23T19:37:37.710Z,2.90
2018-11-23T19:40:08.449Z,2.90
2018-11-23T19:42:36.146Z,3.00
2018-11-23T19:45:05.443Z,2.90
2018-11-23T19:47:33.528Z,3.00
2018-11-23T19:50:01.242Z,2.90
2018-11-23T19:52:29.165Z,3.00
2018-11-23T19:54:57.070Z,3.00
2018-11-23T19:57:24.750Z,2.90
2018-11-23T19:59:52.470Z,3.00
2018-11-23T20:02:20.140Z,3.00
2018-11-23T20:04:47.921Z,3.00
2018-11-23T20:07:15.583Z,3.00
2018-11-23T20:09:43.326Z,3.00
2018-11-23T20:12:11.070Z,3.00
2018-11-23T20:14:38.761Z,3.00
2018-11-23T20:17:06.510Z,3.00
2018-11-23T20:19:36.104Z,3.00
2018-11-23T20:22:04.147Z,3.00
2018-11-23T20:24:31.915Z,3.00
2018-11-23T20:26:59.661Z,3.00
2018-11-23T20:29:29.818Z,3.00
2018-11-23T20:31:57.530Z,2.90
2018-11-23T20:34:25.266Z,2.90
2018-11-23T20:36:52.923Z,2.90
2018-11-23T20:39:20.668Z,3.00
2018-11-23T20:41:54.661Z,2.90
2018-11-23T20:44:24.687Z,3.00
2018-11-23T20:46:56.413Z,3.00
2018-11-23T20:49:24.215Z,2.90
2018-11-23T20:51:51.937Z,3.00
2018-11-23T20:54:19.610Z,2.90
2018-11-23T20:56:47.392Z,2.90
2018-11-23T20:59:16.569Z,2.90
2018-11-23T21:01:44.234Z,2.90
2018-11-23T21:04:11.935Z,2.90
2018-11-23T21:06:39.718Z,2.90
2018-11-23T21:09:09.439Z,2.90
2018-11-23T21:11:37.258Z,2.80
2018-11-23T21:14:06.328Z,2.80
2018-11-23T21:16:34.202Z,2.80
2018-11-23T21:19:01.893Z,2.90
2018-11-23T21:21:29.790Z,2.90
2018-11-23T21:23:57.542Z,2.90
2018-11-23T21:26:25.227Z,3.00
2018-11-23T21:28:53.045Z,2.90
2018-11-23T21:31:20.766Z,2.90
2018-11-23T21:33:48.511Z,2.90
2018-11-23T21:36:16.208Z,2.80
2018-11-23T21:38:43.918Z,2.80
2018-11-23T21:41:12.382Z,2.80
2018-11-23T21:43:40.949Z,2.80
2018-11-23T21:46:08.978Z,2.80
2018-11-23T21:48:38.058Z,2.80
2018-11-23T21:51:05.758Z,2.80
2018-11-23T21:53:33.837Z,2.80
2018-11-23T21:56:01.598Z,2.70
2018-11-23T21:58:30.485Z,2.80
2018-11-23T22:00:58.656Z,2.80
2018-11-23T22:03:27.183Z,2.80
2018-11-23T22:05:55.181Z,2.80
2018-11-23T22:08:23.634Z,2.80
2018-11-23T22:10:50.927Z,2.80
2018-11-23T22:13:18.698Z,2.80
2018-11-23T22:15:46.391Z,2.70
2018-11-23T22:18:16.837Z,2.80
2018-11-23T22:20:44.541Z,2.70
2018-11-23T22:23:12.295Z,2.70
2018-11-23T22:25:39.942Z,2.60
2018-11-23T22:28:07.614Z,2.60
2018-11-23T22:30:35.338Z,2.50
2018-11-23T22:33:03.078Z,2.50
2018-11-23T22:35:30.871Z,2.40
2018-11-23T22:37:59.826Z,2.30
2018-11-23T22:40:27.528Z,2.20
2018-11-23T22:42:57.532Z,2.20
2018-11-23T22:45:25.258Z,2.10
2018-11-23T22:47:53.029Z,2.10
2018-11-23T22:50:22.046Z,2.00
2018-11-23T22:52:49.870Z,2.00
2018-11-23T22:55:18.767Z,1.90
2018-11-23T22:57:46.449Z,1.90
2018-11-23T23:00:22.410Z,1.80
2018-11-23T23:02:50.234Z,1.80
2018-11-23T23:05:20.393Z,1.80
2018-11-23T23:07:48.066Z,1.70
2018-11-23T23:10:15.763Z,1.70
2018-11-23T23:12:44.208Z,1.60
2018-11-23T23:15:12.213Z,1.60
2018-11-23T23:17:40.501Z,1.50
2018-11-23T23:20:10.686Z,1.50
2018-11-23T23:22:42.184Z,1.50
2018-11-23T23:25:11.066Z,1.40
2018-11-23T23:27:38.797Z,1.40
2018-11-23T23:30:12.118Z,1.40
2018-11-23T23:32:40.071Z,1.40
2018-11-23T23:35:09.706Z,1.40
2018-11-23T23:37:37.639Z,1.40
2018-11-23T23:40:21.238Z,1.40
2018-11-23T23:42:48.947Z,1.30
2018-11-23T23:45:18.371Z,1.30
2018-11-23T23:47:46.235Z,1.40
2018-11-23T23:50:21.260Z,1.40
2018-11-23T23:52:50.024Z,1.40
2018-11-23T23:55:17.854Z,1.50
2018-11-23T23:57:46.527Z,1.50
